Aviation Digital Data Service (ADDS)

Output produced by TAFs form (1937 UTC 16 January 2018)
found at http://www.aviationweather.gov/adds/tafs/
 
KCNY 161734Z 1618/1718 VRB03KT P6SM SKC